createdAt,value
2023-04-28T00:02:21.422Z,9.85
2023-04-28T00:04:48.908Z,8.05
2023-04-28T00:07:16.151Z,8.32
2023-04-28T00:09:43.500Z,9.73
2023-04-28T00:12:11.512Z,8.68
2023-04-28T00:14:38.814Z,7.65
2023-04-28T00:17:06.014Z,7.63
2023-04-28T00:19:33.293Z,7.82
2023-04-28T00:22:00.995Z,10.20
2023-04-28T00:24:28.342Z,8.25
2023-04-28T00:26:56.295Z,7.75
2023-04-28T00:29:23.638Z,6.10
2023-04-28T00:31:51.063Z,9.00
2023-04-28T00:34:18.633Z,7.10
2023-04-28T00:36:45.986Z,9.63
2023-04-28T00:39:13.264Z,7.40
2023-04-28T00:41:40.548Z,6.95
2023-04-28T00:44:07.696Z,7.63
2023-04-28T00:46:34.845Z,7.07
2023-04-28T00:49:02.459Z,8.38
2023-04-28T00:51:29.782Z,9.13
2023-04-28T00:53:58.001Z,8.40
2023-04-28T00:56:27.544Z,7.55
2023-04-28T00:58:54.774Z,8.73
2023-04-28T01:01:22.182Z,10.30
2023-04-28T01:03:50.082Z,7.68
2023-04-28T01:06:18.057Z,7.15
2023-04-28T01:08:48.823Z,8.27
2023-04-28T01:11:16.144Z,7.70
2023-04-28T01:13:43.277Z,7.35
2023-04-28T01:16:11.457Z,7.18
2023-04-28T01:18:39.970Z,7.50
2023-04-28T01:21:07.155Z,7.70
2023-04-28T01:23:34.337Z,8.47
2023-04-28T01:26:01.854Z,8.27
2023-04-28T01:28:29.177Z,8.40
2023-04-28T01:30:56.612Z,7.85
2023-04-28T01:33:23.941Z,7.80
2023-04-28T01:35:51.261Z,7.77
2023-04-28T01:38:18.617Z,8.05
2023-04-28T01:40:45.821Z,7.13
2023-04-28T01:43:12.989Z,7.85
2023-04-28T01:45:40.202Z,10.88
2023-04-28T01:48:07.550Z,7.40
2023-04-28T01:50:34.680Z,8.00
2023-04-28T01:53:01.859Z,6.82
2023-04-28T01:55:29.193Z,7.82
2023-04-28T01:58:00.809Z,7.18
2023-04-28T02:00:28.004Z,8.43
2023-04-28T02:02:55.432Z,7.65
2023-04-28T02:05:22.675Z,11.40
2023-04-28T02:07:50.021Z,7.25
2023-04-28T02:10:17.292Z,7.43
2023-04-28T02:12:44.671Z,5.80
2023-04-28T02:15:12.049Z,7.50
2023-04-28T02:17:39.267Z,9.05
2023-04-28T02:20:06.742Z,7.93
2023-04-28T02:22:33.954Z,5.35
2023-04-28T02:25:03.405Z,7.43
2023-04-28T02:27:30.748Z,6.43
2023-04-28T02:29:58.079Z,8.93
2023-04-28T02:32:25.539Z,6.15
2023-04-28T02:34:56.381Z,7.32
2023-04-28T02:37:23.645Z,6.77
2023-04-28T02:39:50.922Z,7.43
2023-04-28T02:42:18.221Z,6.65
2023-04-28T02:44:45.707Z,7.75
2023-04-28T02:47:12.845Z,8.00
2023-04-28T02:49:39.976Z,8.40
2023-04-28T02:52:07.277Z,6.32
2023-04-28T02:54:36.609Z,6.93
2023-04-28T02:57:07.479Z,5.38
2023-04-28T02:59:35.507Z,8.32
2023-04-28T03:02:02.722Z,6.37
2023-04-28T03:04:30.101Z,8.02
2023-04-28T03:06:57.382Z,6.60
2023-04-28T03:09:24.601Z,7.53
2023-04-28T03:11:51.773Z,7.53
2023-04-28T03:14:18.983Z,7.15
2023-04-28T03:16:46.241Z,6.03
2023-04-28T03:19:13.486Z,6.35
2023-04-28T03:21:40.632Z,8.43
2023-04-28T03:24:07.837Z,7.53
2023-04-28T03:26:35.008Z,8.53
2023-04-28T03:29:02.841Z,8.15
2023-04-28T03:31:30.202Z,7.78
2023-04-28T03:33:58.632Z,7.05
2023-04-28T03:36:27.439Z,6.05
2023-04-28T03:38:54.637Z,7.63
2023-04-28T03:41:21.846Z,6.65
2023-04-28T03:43:49.094Z,8.00
2023-04-28T03:46:16.278Z,6.47
2023-04-28T03:48:43.615Z,7.78
2023-04-28T03:51:11.204Z,7.28
2023-04-28T03:53:38.473Z,7.32
2023-04-28T03:56:05.928Z,7.72
2023-04-28T03:58:33.205Z,6.07
2023-04-28T04:01:01.227Z,7.55
2023-04-28T04:03:28.751Z,7.88
2023-04-28T04:05:56.361Z,8.60
2023-04-28T04:08:23.999Z,6.85
2023-04-28T04:10:52.631Z,6.45
2023-04-28T04:13:19.990Z,6.65
2023-04-28T04:15:47.441Z,9.10
2023-04-28T04:18:14.886Z,8.02
2023-04-28T04:20:42.175Z,8.82
2023-04-28T04:23:09.391Z,7.95
2023-04-28T04:25:36.733Z,7.60
2023-04-28T04:28:03.999Z,8.50
2023-04-28T04:30:31.388Z,9.65
2023-04-28T04:32:58.803Z,9.85
2023-04-28T04:35:26.164Z,8.27
2023-04-28T04:37:53.443Z,11.27
2023-04-28T04:40:20.778Z,7.70
2023-04-28T04:42:47.967Z,9.55
2023-04-28T04:45:15.570Z,7.10
2023-04-28T04:47:43.185Z,9.25
2023-04-28T04:50:10.523Z,7.65
2023-04-28T04:52:37.819Z,8.05
2023-04-28T04:55:05.375Z,7.85
2023-04-28T04:57:32.718Z,8.73
2023-04-28T04:59:59.867Z,8.93
2023-04-28T05:02:27.055Z,7.78
2023-04-28T05:05:01.806Z,8.53
2023-04-28T05:07:36.002Z,9.55
2023-04-28T05:10:03.633Z,9.52
2023-04-28T05:12:30.831Z,10.13
2023-04-28T05:14:58.122Z,10.43
2023-04-28T05:17:25.888Z,11.30
2023-04-28T05:19:53.076Z,9.40
2023-04-28T05:22:20.430Z,11.75
2023-04-28T05:24:47.745Z,9.65
2023-04-28T05:27:15.160Z,10.05
2023-04-28T05:29:42.359Z,11.10
2023-04-28T05:32:09.701Z,11.23
2023-04-28T05:34:36.937Z,9.68
2023-04-28T05:37:04.088Z,12.18
2023-04-28T05:39:31.508Z,11.05
2023-04-28T05:41:58.860Z,10.27
2023-04-28T05:44:26.345Z,11.23
2023-04-28T05:46:53.629Z,13.48
2023-04-28T05:49:20.999Z,11.73
2023-04-28T05:51:48.228Z,12.40
2023-04-28T05:54:15.644Z,12.48
2023-04-28T05:56:43.082Z,12.50
2023-04-28T05:59:10.440Z,13.20
2023-04-28T06:01:38.905Z,15.02
2023-04-28T06:04:06.284Z,12.98
2023-04-28T06:06:34.514Z,14.35
2023-04-28T06:09:02.602Z,12.20
2023-04-28T06:11:30.189Z,12.52
2023-04-28T06:13:57.409Z,12.80
2023-04-28T06:16:24.673Z,13.00
2023-04-28T06:18:51.905Z,14.00
2023-04-28T06:21:19.589Z,12.68
2023-04-28T06:23:47.054Z,14.52
2023-04-28T06:26:18.082Z,13.80
2023-04-28T06:28:45.822Z,15.63
2023-04-28T06:31:13.019Z,14.90
2023-04-28T06:33:40.180Z,14.38
2023-04-28T06:36:07.560Z,15.55
2023-04-28T06:38:34.764Z,13.98
2023-04-28T06:41:02.823Z,16.38
2023-04-28T06:43:30.049Z,16.48
2023-04-28T06:45:57.288Z,13.48
2023-04-28T06:48:26.196Z,15.48
2023-04-28T06:50:53.538Z,15.38
2023-04-28T06:53:20.997Z,16.77
2023-04-28T06:55:48.364Z,15.15
2023-04-28T06:58:15.857Z,16.67
2023-04-28T07:00:43.071Z,15.68
2023-04-28T07:03:10.482Z,15.35
2023-04-28T07:05:37.880Z,14.10
2023-04-28T07:08:05.269Z,14.15
2023-04-28T07:10:32.484Z,17.23
2023-04-28T07:12:59.930Z,15.70
2023-04-28T07:15:27.326Z,16.05
2023-04-28T07:17:54.555Z,15.50
2023-04-28T07:20:21.917Z,17.63
2023-04-28T07:22:49.166Z,16.67
2023-04-28T07:25:16.374Z,16.50
2023-04-28T07:27:43.707Z,21.65
2023-04-28T07:30:25.724Z,15.80
2023-04-28T07:32:54.957Z,17.20
2023-04-28T07:35:22.674Z,17.38
2023-04-28T07:37:50.027Z,17.45
2023-04-28T07:40:17.445Z,19.88
2023-04-28T07:42:45.060Z,16.25
2023-04-28T07:45:12.507Z,17.43
2023-04-28T07:47:39.799Z,18.67
2023-04-28T07:50:08.072Z,18.88
2023-04-28T07:52:35.880Z,17.40
2023-04-28T07:55:04.713Z,20.25
2023-04-28T07:57:31.912Z,18.50
2023-04-28T07:59:59.201Z,19.10
2023-04-28T08:02:27.615Z,18.23
2023-04-28T08:04:55.081Z,15.93
2023-04-28T08:07:22.455Z,17.63
2023-04-28T08:09:50.356Z,17.00
2023-04-28T08:12:19.008Z,21.48
2023-04-28T08:14:46.446Z,18.45
2023-04-28T08:17:13.783Z,21.25
2023-04-28T08:19:40.916Z,20.48
2023-04-28T08:22:08.376Z,21.97
2023-04-28T08:24:35.846Z,22.00
2023-04-28T08:27:03.384Z,22.75
2023-04-28T08:29:31.815Z,23.35
2023-04-28T08:31:59.846Z,23.02
2023-04-28T08:34:27.139Z,24.77
2023-04-28T08:36:54.507Z,23.95
2023-04-28T08:39:23.736Z,25.10
2023-04-28T08:41:51.542Z,27.65
2023-04-28T08:44:19.291Z,24.25
2023-04-28T08:46:47.571Z,28.03
2023-04-28T08:49:19.390Z,25.90
2023-04-28T08:51:50.282Z,26.83
2023-04-28T08:54:26.139Z,25.88
2023-04-28T08:56:54.424Z,25.58
2023-04-28T08:59:22.000Z,24.83
2023-04-28T09:01:50.074Z,24.45
2023-04-28T09:04:19.341Z,24.83
2023-04-28T09:06:47.284Z,23.85
2023-04-28T09:09:30.151Z,21.63
2023-04-28T09:12:00.185Z,21.60
2023-04-28T09:14:28.066Z,21.48
2023-04-28T09:16:55.712Z,21.80
2023-04-28T09:19:23.224Z,19.35
2023-04-28T09:21:52.608Z,19.88
2023-04-28T09:24:40.547Z,22.70
2023-04-28T09:27:10.937Z,21.33
2023-04-28T09:29:38.971Z,20.23
2023-04-28T09:32:19.485Z,18.58
2023-04-28T09:34:48.143Z,19.15
2023-04-28T09:37:16.503Z,19.90
2023-04-28T09:39:47.119Z,19.23
2023-04-28T09:42:33.735Z,17.70
2023-04-28T09:45:02.925Z,16.80
2023-04-28T09:47:32.500Z,17.42
2023-04-28T09:50:01.262Z,18.33
2023-04-28T09:52:28.400Z,16.38
2023-04-28T09:54:56.787Z,18.25
2023-04-28T09:57:24.481Z,16.48
2023-04-28T09:59:52.545Z,17.48
2023-04-28T10:02:42.192Z,17.67
2023-04-28T10:05:13.152Z,15.68
2023-04-28T10:07:41.328Z,16.65
2023-04-28T10:10:09.144Z,16.65
2023-04-28T10:12:39.395Z,15.95
2023-04-28T10:15:07.973Z,16.10
2023-04-28T10:17:35.621Z,16.63
2023-04-28T10:20:03.468Z,15.93
2023-04-28T10:22:38.163Z,17.50
2023-04-28T10:25:24.289Z,17.23
2023-04-28T10:27:52.253Z,18.37
2023-04-28T10:30:27.351Z,17.80
2023-04-28T10:33:22.852Z,21.85
2023-04-28T10:35:50.112Z,20.00
2023-04-28T10:38:18.118Z,21.15
2023-04-28T10:40:46.390Z,21.47
2023-04-28T10:43:14.525Z,19.85
2023-04-28T10:45:57.914Z,21.67
2023-04-28T10:48:34.705Z,21.50
2023-04-28T10:51:07.949Z,22.10
2023-04-28T10:53:48.529Z,19.57
2023-04-28T10:56:20.452Z,20.92
2023-04-28T10:58:52.858Z,21.38
2023-04-28T11:01:20.172Z,20.85
2023-04-28T11:03:47.521Z,19.73
2023-04-28T11:06:32.497Z,17.23
2023-04-28T11:09:00.929Z,20.52
2023-04-28T11:11:30.299Z,16.70
2023-04-28T11:14:16.609Z,12.75
2023-04-28T11:16:51.199Z,12.65
2023-04-28T11:19:20.361Z,12.83
2023-04-28T11:21:48.411Z,11.88
2023-04-28T11:24:15.996Z,12.57
2023-04-28T11:26:43.737Z,11.55
2023-04-28T11:29:11.870Z,11.48
2023-04-28T11:31:39.701Z,12.13
2023-04-28T11:34:08.188Z,11.80
2023-04-28T11:36:36.982Z,12.88
2023-04-28T11:39:08.355Z,11.18
2023-04-28T11:41:36.539Z,11.30
2023-04-28T11:44:17.151Z,11.30
2023-04-28T11:46:53.762Z,11.32
2023-04-28T11:49:21.420Z,13.00
2023-04-28T11:51:50.419Z,10.75
2023-04-28T11:54:22.054Z,8.27
2023-04-28T11:56:49.386Z,9.30
2023-04-28T11:59:16.596Z,10.50
2023-04-28T12:01:52.062Z,9.25
2023-04-28T12:04:32.234Z,8.93
2023-04-28T12:07:04.824Z,6.90
2023-04-28T12:09:33.218Z,6.83
2023-04-28T12:12:03.192Z,5.25
2023-04-28T12:14:32.105Z,5.20
2023-04-28T12:16:59.581Z,5.00
2023-04-28T12:19:26.766Z,5.78
2023-04-28T12:22:01.555Z,4.57
2023-04-28T12:24:28.774Z,4.38
2023-04-28T12:26:56.179Z,3.85
2023-04-28T12:29:37.241Z,4.15
2023-04-28T12:32:05.152Z,4.47
2023-04-28T12:34:33.323Z,3.47
2023-04-28T12:37:01.791Z,3.00
2023-04-28T12:39:29.452Z,4.32
2023-04-28T12:41:57.558Z,4.15
2023-04-28T12:44:24.691Z,4.63
2023-04-28T12:46:52.650Z,4.53
2023-04-28T12:49:19.952Z,3.75
2023-04-28T12:51:47.330Z,4.35
2023-04-28T12:54:14.570Z,5.57
2023-04-28T12:56:42.658Z,4.22
2023-04-28T12:59:09.947Z,5.00
2023-04-28T13:01:37.085Z,4.85
2023-04-28T13:04:05.651Z,5.32
2023-04-28T13:06:33.821Z,9.38
2023-04-28T13:09:01.024Z,5.85
2023-04-28T13:11:28.731Z,5.77
2023-04-28T13:13:57.041Z,5.60
2023-04-28T13:16:25.950Z,5.97
2023-04-28T13:18:53.232Z,5.43
2023-04-28T13:21:20.535Z,6.35
2023-04-28T13:23:47.686Z,5.83
2023-04-28T13:26:15.060Z,5.35
2023-04-28T13:28:42.279Z,5.93
2023-04-28T13:31:09.861Z,6.22
2023-04-28T13:33:37.144Z,7.97
2023-04-28T13:36:04.313Z,7.50
2023-04-28T13:38:31.536Z,8.70
2023-04-28T13:40:58.752Z,9.25
2023-04-28T13:43:26.064Z,6.13
2023-04-28T13:45:53.558Z,6.15
2023-04-28T13:48:20.862Z,6.13
2023-04-28T13:50:47.993Z,6.90
2023-04-28T13:53:15.712Z,7.80
2023-04-28T13:55:42.995Z,6.72
2023-04-28T13:58:10.141Z,6.43
2023-04-28T14:00:40.321Z,6.73
2023-04-28T14:03:07.785Z,7.20
2023-04-28T14:05:48.190Z,6.65
2023-04-28T14:08:20.268Z,7.93
2023-04-28T14:10:48.547Z,10.32
2023-04-28T14:13:16.171Z,7.97
2023-04-28T14:15:54.729Z,7.82
2023-04-28T14:18:25.947Z,8.30
2023-04-28T14:20:54.772Z,8.07
2023-04-28T14:23:24.167Z,9.35
2023-04-28T14:25:58.302Z,7.63
2023-04-28T14:28:27.772Z,7.75
2023-04-28T14:30:55.444Z,8.85
2023-04-28T14:33:27.004Z,8.60
2023-04-28T14:35:54.358Z,8.45
2023-04-28T14:38:22.186Z,10.63
2023-04-28T14:40:49.658Z,12.50
2023-04-28T14:43:16.849Z,12.15
2023-04-28T14:45:45.029Z,13.73
2023-04-28T14:48:14.532Z,14.27
2023-04-28T14:50:43.706Z,15.77
2023-04-28T14:53:11.001Z,14.95
2023-04-28T14:55:38.229Z,15.10
2023-04-28T14:58:05.411Z,16.33
2023-04-28T15:00:32.647Z,17.17
2023-04-28T15:03:00.038Z,16.70
2023-04-28T15:05:27.294Z,17.33
2023-04-28T15:07:54.461Z,19.45
2023-04-28T15:10:21.843Z,18.60
2023-04-28T15:12:49.596Z,16.15
2023-04-28T15:15:16.835Z,19.93
2023-04-28T15:17:45.824Z,17.77
2023-04-28T15:20:13.265Z,12.82
2023-04-28T15:22:41.011Z,13.73
2023-04-28T15:25:08.426Z,14.30
2023-04-28T15:27:36.454Z,13.73
2023-04-28T15:30:03.693Z,13.10
2023-04-28T15:32:32.419Z,12.70
2023-04-28T15:35:01.695Z,12.48
2023-04-28T15:37:45.695Z,14.32
2023-04-28T15:40:13.809Z,15.30
2023-04-28T15:42:53.043Z,15.70
2023-04-28T15:45:21.441Z,14.90
2023-04-28T15:47:50.602Z,16.48
2023-04-28T15:50:19.763Z,22.90
2023-04-28T15:52:47.705Z,24.17
2023-04-28T15:55:15.784Z,24.88
2023-04-28T15:57:43.524Z,22.10
2023-04-28T16:00:11.724Z,23.63
2023-04-28T16:02:39.629Z,23.40
2023-04-28T16:05:07.413Z,23.63
2023-04-28T16:07:40.956Z,28.40
2023-04-28T16:10:15.460Z,27.83
2023-04-28T16:12:43.507Z,28.13
2023-04-28T16:15:12.478Z,26.30
2023-04-28T16:17:40.315Z,22.03
2023-04-28T16:20:08.697Z,22.98
2023-04-28T16:22:36.426Z,20.20
2023-04-28T16:25:04.066Z,28.45
2023-04-28T16:27:32.174Z,20.23
2023-04-28T16:29:59.680Z,17.90
2023-04-28T16:32:27.102Z,18.05
2023-04-28T16:34:56.856Z,22.02
2023-04-28T16:37:24.134Z,20.13
2023-04-28T16:39:51.641Z,17.85
2023-04-28T16:42:21.080Z,22.57
2023-04-28T16:44:49.030Z,20.15
2023-04-28T16:47:17.284Z,19.35
2023-04-28T16:49:44.579Z,20.45
2023-04-28T16:52:11.928Z,16.27
2023-04-28T16:54:39.144Z,16.23
2023-04-28T16:57:06.681Z,20.10
2023-04-28T16:59:34.193Z,15.90
2023-04-28T17:02:03.757Z,18.65
2023-04-28T17:04:31.718Z,24.67
2023-04-28T17:06:59.311Z,16.43
2023-04-28T17:09:27.506Z,13.60
2023-04-28T17:11:55.145Z,11.40
2023-04-28T17:14:22.527Z,10.85
2023-04-28T17:16:49.840Z,21.10
2023-04-28T17:19:17.210Z,10.87
2023-04-28T17:21:46.471Z,12.52
2023-04-28T17:24:13.642Z,16.50
2023-04-28T17:26:41.718Z,12.85
2023-04-28T17:29:09.110Z,21.60
2023-04-28T17:31:38.838Z,48.40
2023-04-28T17:34:06.625Z,16.17
2023-04-28T17:36:33.875Z,27.48
2023-04-28T17:39:01.476Z,19.75
2023-04-28T17:41:28.676Z,11.00
2023-04-28T17:43:56.321Z,17.23
2023-04-28T17:46:23.600Z,9.88
2023-04-28T17:48:51.033Z,5.82
2023-04-28T17:51:19.001Z,5.45
2023-04-28T17:53:48.779Z,5.68
2023-04-28T17:56:16.292Z,5.13
2023-04-28T17:58:43.683Z,17.58
2023-04-28T18:01:10.934Z,12.23
2023-04-28T18:03:39.068Z,10.02
2023-04-28T18:06:08.211Z,11.27
2023-04-28T18:08:36.780Z,13.83
2023-04-28T18:11:05.013Z,16.05
2023-04-28T18:13:33.322Z,14.50
2023-04-28T18:16:01.211Z,14.88
2023-04-28T18:18:30.253Z,11.57
2023-04-28T18:20:59.394Z,12.47
2023-04-28T18:23:27.254Z,17.35
2023-04-28T18:25:54.614Z,15.05
2023-04-28T18:28:21.926Z,17.58
2023-04-28T18:30:49.399Z,21.45
2023-04-28T18:33:22.309Z,19.00
2023-04-28T18:35:58.979Z,17.00
2023-04-28T18:38:26.408Z,18.67
2023-04-28T18:40:53.763Z,19.15
2023-04-28T18:43:21.651Z,20.50
2023-04-28T18:45:49.094Z,25.60
2023-04-28T18:48:16.331Z,23.25
2023-04-28T18:50:44.092Z,27.80
2023-04-28T18:53:11.556Z,26.42
2023-04-28T18:55:38.860Z,26.77
2023-04-28T18:58:06.246Z,24.63
2023-04-28T19:00:36.899Z,25.75
2023-04-28T19:03:06.172Z,24.55
2023-04-28T19:05:34.400Z,27.63
2023-04-28T19:08:01.737Z,28.33
2023-04-28T19:10:28.943Z,28.63
2023-04-28T19:12:56.290Z,28.95
2023-04-28T19:15:23.906Z,31.05
2023-04-28T19:17:51.894Z,29.40
2023-04-28T19:20:19.368Z,29.20
2023-04-28T19:22:47.185Z,31.63
2023-04-28T19:25:15.224Z,32.50
2023-04-28T19:27:45.223Z,32.55
2023-04-28T19:30:13.756Z,32.67
2023-04-28T19:32:41.724Z,33.22
2023-04-28T19:35:09.543Z,33.87
2023-04-28T19:37:37.867Z,33.78
2023-04-28T19:40:05.575Z,36.65
2023-04-28T19:42:33.771Z,36.25
2023-04-28T19:45:01.193Z,36.20
2023-04-28T19:47:35.629Z,36.13
2023-04-28T19:50:02.916Z,38.83
2023-04-28T19:52:30.156Z,33.10
2023-04-28T19:54:57.638Z,34.97
2023-04-28T19:57:25.032Z,32.58
2023-04-28T19:59:52.909Z,35.77
2023-04-28T20:02:21.180Z,34.85
2023-04-28T20:04:49.777Z,35.88
2023-04-28T20:07:17.153Z,35.85
2023-04-28T20:09:45.022Z,41.67
2023-04-28T20:12:12.470Z,37.37
2023-04-28T20:14:39.912Z,40.55
2023-04-28T20:17:09.128Z,36.17
2023-04-28T20:19:37.816Z,40.25
2023-04-28T20:22:08.369Z,37.15
2023-04-28T20:24:36.163Z,40.97
2023-04-28T20:27:04.610Z,39.47
2023-04-28T20:29:34.951Z,42.58
2023-04-28T20:32:05.466Z,41.40
2023-04-28T20:34:32.600Z,43.67
2023-04-28T20:37:00.233Z,42.27
2023-04-28T20:39:27.543Z,48.00
2023-04-28T20:41:54.723Z,42.42
2023-04-28T20:44:22.061Z,46.35
2023-04-28T20:46:49.881Z,50.85
2023-04-28T20:49:17.019Z,51.90
2023-04-28T20:51:45.945Z,42.75
2023-04-28T20:54:13.904Z,43.97
2023-04-28T20:56:42.920Z,49.60
2023-04-28T20:59:10.251Z,52.88
2023-04-28T21:01:37.475Z,49.67
2023-04-28T21:04:04.884Z,49.92
2023-04-28T21:06:32.144Z,54.60
2023-04-28T21:09:01.585Z,51.88
2023-04-28T21:11:28.899Z,49.35
2023-04-28T21:13:56.677Z,48.72
2023-04-28T21:16:24.077Z,46.25
2023-04-28T21:18:51.597Z,45.92
2023-04-28T21:21:19.169Z,49.50
2023-04-28T21:23:48.014Z,41.60
2023-04-28T21:26:15.425Z,46.93
2023-04-28T21:28:42.848Z,43.38
2023-04-28T21:31:10.195Z,49.40
2023-04-28T21:33:53.191Z,44.17
2023-04-28T21:36:20.534Z,50.75
2023-04-28T21:38:49.054Z,48.33
2023-04-28T21:41:20.839Z,43.95
2023-04-28T21:43:48.186Z,43.35
2023-04-28T21:46:19.106Z,39.88
2023-04-28T21:48:52.694Z,38.90
2023-04-28T21:51:19.835Z,38.45
2023-04-28T21:53:47.176Z,31.67
2023-04-28T21:56:16.116Z,37.30
2023-04-28T21:58:43.581Z,32.08
2023-04-28T22:01:10.852Z,38.17
2023-04-28T22:03:39.008Z,37.97
2023-04-28T22:06:06.492Z,32.65
2023-04-28T22:08:33.830Z,35.95
2023-04-28T22:11:01.828Z,36.55
2023-04-28T22:13:29.209Z,39.15
2023-04-28T22:15:56.767Z,37.00
2023-04-28T22:18:23.985Z,36.45
2023-04-28T22:20:51.343Z,37.67
2023-04-28T22:23:18.551Z,34.05
2023-04-28T22:25:45.883Z,35.03
2023-04-28T22:28:13.990Z,31.20
2023-04-28T22:30:41.173Z,30.92
2023-04-28T22:33:08.496Z,29.67
2023-04-28T22:35:35.754Z,27.02
2023-04-28T22:38:04.378Z,26.48
2023-04-28T22:40:31.686Z,28.93
2023-04-28T22:42:59.004Z,27.25
2023-04-28T22:45:26.283Z,25.45
2023-04-28T22:47:53.517Z,24.05
2023-04-28T22:50:21.035Z,27.73
2023-04-28T22:52:48.313Z,25.02
2023-04-28T22:55:15.603Z,24.05
2023-04-28T22:57:42.944Z,25.95
2023-04-28T23:00:10.653Z,24.00
2023-04-28T23:02:38.118Z,26.15
2023-04-28T23:05:05.717Z,26.27
2023-04-28T23:07:32.940Z,23.27
2023-04-28T23:10:00.463Z,22.80
2023-04-28T23:12:27.715Z,25.88
2023-04-28T23:14:55.149Z,24.88
2023-04-28T23:17:22.336Z,22.17
2023-04-28T23:19:49.974Z,22.45
2023-04-28T23:22:17.590Z,21.30
2023-04-28T23:24:44.898Z,22.73
2023-04-28T23:27:12.386Z,23.73
2023-04-28T23:29:39.749Z,24.35
2023-04-28T23:32:07.183Z,23.98
2023-04-28T23:34:34.429Z,25.45
2023-04-28T23:37:01.675Z,28.05
2023-04-28T23:39:30.238Z,26.92
2023-04-28T23:41:58.706Z,28.67
2023-04-28T23:44:25.950Z,24.63
2023-04-28T23:46:54.812Z,25.92
2023-04-28T23:49:23.914Z,27.30
2023-04-28T23:51:51.229Z,31.17
2023-04-28T23:54:18.430Z,24.23
2023-04-28T23:56:45.623Z,29.10
2023-04-28T23:59:12.841Z,32.65
